Time;durP1;ratioP1;P1;durP2;ratioP2;P2;SDS_P1;SDS_P2;PMS_P1;PMS_P2;Temp;Humidity;BMP_temperature;BMP_pressure;BME280_temperature;BME280_humidity;BME280_pressure;Samples;Min_cycle;Max_cycle;Signal;HPM_P1;HPM_P2
2022/12/18 00:01:28;;;;;;;12.18;5.68;;;-2.90;99.90;;;;;;7378677;32;20521;-58
2022/12/18 00:05:30;;;;;;;11.52;4.85;;;-3.00;99.90;;;;;;7377163;32;20139;-60
2022/12/18 00:09:31;;;;;;;8.95;5.10;;;-3.00;99.90;;;;;;7375900;32;20103;-60
2022/12/18 00:13:41;;;;;;;11.00;5.50;;;-3.00;99.90;;;;;;7378937;32;20114;-59
2022/12/18 00:17:43;;;;;;;9.95;5.05;;;-3.00;99.90;;;;;;7377019;32;20507;-60
2022/12/18 00:21:45;;;;;;;10.20;4.82;;;-2.90;99.90;;;;;;7375914;32;20107;-60
2022/12/18 00:25:46;;;;;;;11.02;5.40;;;-3.00;99.90;;;;;;7374510;32;20107;-60
2022/12/18 00:29:48;;;;;;;7.43;4.50;;;-2.90;99.90;;;;;;7379702;32;20250;-60
2022/12/18 00:33:50;;;;;;;9.23;4.70;;;-3.00;99.90;;;;;;7375114;32;20122;-60
2022/12/18 00:37:56;;;;;;;9.25;4.75;;;-3.00;99.90;;;;;;7376441;32;20197;-59
2022/12/18 00:46:17;;;;;;;12.95;5.15;;;-3.20;99.90;;;;;;7375775;32;20236;-60
2022/12/18 00:50:21;;;;;;;10.77;4.78;;;-3.10;99.90;;;;;;7377154;32;20278;-60
2022/12/18 00:54:23;;;;;;;9.02;5.18;;;-3.10;99.90;;;;;;7374392;32;20507;-60
2022/12/18 00:58:25;;;;;;;9.50;4.60;;;-3.10;99.90;;;;;;7374129;32;20519;-60
2022/12/18 01:02:26;;;;;;;8.43;4.62;;;-3.20;99.90;;;;;;7379889;32;20103;-60
2022/12/18 01:06:29;;;;;;;10.90;5.37;;;-3.10;99.90;;;;;;7376342;32;20221;-60
2022/12/18 01:10:31;;;;;;;9.82;5.43;;;-3.10;99.90;;;;;;7374652;32;20106;-60
2022/12/18 01:14:32;;;;;;;8.43;4.68;;;-3.10;99.90;;;;;;7374334;32;20535;-60
2022/12/18 01:18:35;;;;;;;11.20;5.28;;;-3.10;99.90;;;;;;7367887;32;20103;-60
2022/12/18 01:22:37;;;;;;;10.10;5.18;;;-3.10;99.90;;;;;;7376252;32;20229;-60
2022/12/18 01:26:38;;;;;;;10.80;5.15;;;-3.20;99.90;;;;;;7376133;32;20230;-61
2022/12/18 01:30:40;;;;;;;12.45;5.72;;;-3.10;99.90;;;;;;7377001;32;20111;-60
2022/12/18 01:34:42;;;;;;;9.88;4.68;;;-3.10;99.90;;;;;;7370659;32;21140;-59
2022/12/18 01:38:44;;;;;;;8.52;4.60;;;-3.10;99.90;;;;;;7372583;32;21235;-60
2022/12/18 01:42:52;;;;;;;8.68;4.90;;;-3.10;99.90;;;;;;7375062;32;20490;-59
2022/12/18 01:46:54;;;;;;;11.00;5.82;;;-3.10;99.90;;;;;;7378203;32;20099;-60
2022/12/18 01:50:56;;;;;;;11.07;5.18;;;-3.10;99.90;;;;;;7378940;32;20538;-59
2022/12/18 01:54:59;;;;;;;8.70;5.22;;;-3.10;99.90;;;;;;7371968;32;20809;-60
2022/12/18 01:59:07;;;;;;;9.65;5.32;;;-3.00;99.90;;;;;;7371404;32;20123;-60
2022/12/18 02:03:09;;;;;;;12.65;6.05;;;-2.90;99.90;;;;;;7371391;32;20115;-60
2022/12/18 02:07:39;;;;;;;11.20;5.50;;;-3.00;99.90;;;;;;7376588;32;20194;-60
2022/12/18 02:11:43;;;;;;;10.30;5.78;;;-2.90;99.90;;;;;;7370409;32;20641;-60
2022/12/18 02:15:59;;;;;;;11.40;5.70;;;-2.80;99.90;;;;;;7379963;32;20111;-59
2022/12/18 02:20:08;;;;;;;11.63;5.25;;;-2.80;99.90;;;;;;7371655;32;20150;-59
2022/12/18 02:24:12;;;;;;;9.90;5.03;;;-2.80;99.90;;;;;;7367490;32;20133;-60
2022/12/18 02:28:17;;;;;;;11.57;5.68;;;-2.80;99.90;;;;;;7373823;32;20107;-60
2022/12/18 02:32:25;;;;;;;9.75;5.37;;;-2.80;99.90;;;;;;7373785;32;20115;-60
2022/12/18 02:36:29;;;;;;;10.60;5.72;;;-2.80;99.90;;;;;;7376833;32;20107;-59
2022/12/18 02:40:31;;;;;;;10.65;5.10;;;-2.70;99.90;;;;;;7376876;32;20102;-60
2022/12/18 02:44:35;;;;;;;10.48;5.20;;;-2.60;99.90;;;;;;7372153;32;20138;-60
2022/12/18 02:48:37;;;;;;;12.07;5.12;;;-2.60;99.90;;;;;;7373628;32;20229;-60
2022/12/18 02:52:55;;;;;;;11.05;4.57;;;-2.50;99.90;;;;;;7377207;32;20202;-60
2022/12/18 02:57:05;;;;;;;11.65;5.55;;;-2.50;99.90;;;;;;7378192;32;20126;-60
2022/12/18 03:01:42;;;;;;;12.93;5.25;;;-2.50;99.90;;;;;;7374061;32;20102;-60
2022/12/18 03:06:05;;;;;;;8.10;5.07;;;-2.60;99.90;;;;;;7374590;32;20103;-62
2022/12/18 03:10:11;;;;;;;10.38;5.10;;;-2.70;99.90;;;;;;7371725;32;20542;-60
2022/12/18 03:14:16;;;;;;;9.48;5.37;;;-2.70;99.90;;;;;;7376834;32;20527;-61
2022/12/18 03:18:25;;;;;;;9.95;5.12;;;-2.60;99.90;;;;;;7366508;32;20484;-59
2022/12/18 03:22:30;;;;;;;13.15;4.87;;;-2.70;99.90;;;;;;7374499;32;20145;-60
2022/12/18 03:26:35;;;;;;;8.13;4.87;;;-2.70;99.90;;;;;;7366185;32;20107;-59
2022/12/18 03:30:39;;;;;;;11.18;4.78;;;-2.70;99.90;;;;;;7374381;32;20284;-59
2022/12/18 03:34:43;;;;;;;11.38;4.70;;;-2.70;99.90;;;;;;7376491;32;20133;-60
2022/12/18 03:38:45;;;;;;;8.60;4.35;;;-2.60;99.90;;;;;;7373956;32;20478;-59
2022/12/18 03:42:53;;;;;;;6.97;4.35;;;-2.60;99.90;;;;;;7383592;32;20145;-59
2022/12/18 03:47:12;;;;;;;9.18;4.28;;;-2.80;99.90;;;;;;7378651;32;20541;-59
2022/12/18 03:51:25;;;;;;;6.80;4.15;;;-2.80;99.90;;;;;;7380017;32;20748;-60
2022/12/18 03:55:29;;;;;;;7.05;3.90;;;-2.70;99.90;;;;;;7379730;32;20114;-60
2022/12/18 03:59:33;;;;;;;8.13;4.40;;;-2.60;99.90;;;;;;7380724;32;20106;-60
2022/12/18 04:03:37;;;;;;;8.10;4.25;;;-2.60;99.90;;;;;;7379658;32;20497;-59
2022/12/18 04:07:40;;;;;;;8.20;4.10;;;-2.70;99.90;;;;;;7375894;32;20224;-60
2022/12/18 04:11:45;;;;;;;8.05;4.22;;;-2.70;99.90;;;;;;7381159;32;20111;-59
2022/12/18 04:15:46;;;;;;;8.80;3.97;;;-2.70;99.90;;;;;;7382898;32;20123;-60
2022/12/18 04:19:48;;;;;;;7.12;3.70;;;-2.60;99.90;;;;;;7380649;32;20140;-60
2022/12/18 04:23:50;;;;;;;9.50;4.20;;;-2.70;99.90;;;;;;7383663;32;20111;-60
2022/12/18 04:27:51;;;;;;;8.52;4.32;;;-2.70;99.90;;;;;;7384512;32;20478;-60
2022/12/18 04:31:54;;;;;;;6.62;3.85;;;-2.60;99.90;;;;;;7387737;32;20115;-59
2022/12/18 04:35:55;;;;;;;6.10;3.70;;;-2.60;99.90;;;;;;7383292;32;20167;-59
2022/12/18 04:39:57;;;;;;;8.52;4.10;;;-2.60;99.90;;;;;;7380132;32;20794;-60
2022/12/18 04:43:59;;;;;;;5.87;3.75;;;-2.60;99.90;;;;;;7375806;32;20149;-60
2022/12/18 04:48:01;;;;;;;5.85;3.50;;;-2.50;99.90;;;;;;7378186;32;20106;-60
2022/12/18 04:52:03;;;;;;;6.28;3.25;;;-2.50;99.90;;;;;;7378141;32;20111;-61
2022/12/18 04:56:14;;;;;;;5.53;3.00;;;-2.50;99.90;;;;;;7377119;32;20125;-60
2022/12/18 05:00:15;;;;;;;7.20;3.50;;;-2.50;99.90;;;;;;7374488;32;20111;-59
2022/12/18 05:04:17;;;;;;;7.82;3.75;;;-2.60;99.90;;;;;;7374831;32;20129;-61
2022/12/18 05:08:20;;;;;;;6.93;2.95;;;-2.70;99.90;;;;;;7373964;32;20157;-62
2022/12/18 05:12:25;;;;;;;7.32;3.30;;;-2.80;99.90;;;;;;7376636;32;20104;-60
2022/12/18 05:16:26;;;;;;;5.15;3.08;;;-2.70;99.90;;;;;;7379466;32;20539;-59
2022/12/18 05:20:29;;;;;;;7.70;3.03;;;-2.60;99.90;;;;;;7372369;32;20121;-61
2022/12/18 05:24:30;;;;;;;5.78;3.15;;;-2.60;99.90;;;;;;7375015;32;20444;-63
2022/12/18 05:28:34;;;;;;;6.05;2.95;;;-2.60;99.90;;;;;;7375712;32;20107;-60
2022/12/18 05:32:35;;;;;;;4.72;3.08;;;-2.60;99.90;;;;;;7379161;32;20305;-60
2022/12/18 05:36:37;;;;;;;5.35;2.65;;;-2.60;99.90;;;;;;7375320;32;20214;-60
2022/12/18 05:40:42;;;;;;;6.03;3.42;;;-2.60;99.90;;;;;;7375639;32;20193;-59
2022/12/18 05:44:44;;;;;;;6.75;3.45;;;-2.60;99.90;;;;;;7373346;32;20121;-60
2022/12/18 05:48:46;;;;;;;5.37;2.70;;;-2.60;99.90;;;;;;7377347;32;20130;-60
2022/12/18 05:52:47;;;;;;;6.60;3.50;;;-2.70;99.90;;;;;;7375208;32;20225;-62
2022/12/18 05:56:49;;;;;;;6.32;3.05;;;-2.70;99.90;;;;;;7376773;32;20252;-60
2022/12/18 06:00:51;;;;;;;5.15;2.85;;;-2.60;99.90;;;;;;7373154;32;20541;-60
2022/12/18 06:04:52;;;;;;;5.57;3.05;;;-2.50;99.90;;;;;;7374550;32;20133;-60
2022/12/18 06:08:55;;;;;;;6.00;3.28;;;-2.50;99.90;;;;;;7380064;32;20106;-60
2022/12/18 06:12:56;;;;;;;6.22;2.70;;;-2.40;99.90;;;;;;7380718;32;20197;-60
2022/12/18 06:16:58;;;;;;;6.03;2.95;;;-2.40;99.90;;;;;;7376643;32;20171;-60
2022/12/18 06:21:00;;;;;;;6.22;3.10;;;-2.40;99.90;;;;;;7369538;32;20111;-60
2022/12/18 06:25:02;;;;;;;4.65;3.05;;;-2.40;99.90;;;;;;7378732;32;20102;-60
2022/12/18 06:29:04;;;;;;;5.68;3.35;;;-2.40;99.90;;;;;;7374796;32;20114;-60
2022/12/18 06:33:06;;;;;;;5.78;3.35;;;-2.40;99.90;;;;;;7373077;32;20115;-60
2022/12/18 06:37:08;;;;;;;5.47;3.30;;;-2.40;99.90;;;;;;7378731;32;20111;-60
2022/12/18 06:41:12;;;;;;;6.10;3.60;;;-2.50;99.90;;;;;;7370400;32;20186;-62
2022/12/18 06:45:14;;;;;;;7.35;3.30;;;-2.50;99.90;;;;;;7374843;32;20178;-60
2022/12/18 06:49:16;;;;;;;7.78;3.35;;;-2.60;99.90;;;;;;7369917;32;20516;-59
2022/12/18 06:53:18;;;;;;;7.47;3.92;;;-2.60;99.90;;;;;;7366276;32;20129;-63
2022/12/18 06:57:19;;;;;;;8.18;3.70;;;-2.60;99.90;;;;;;7367874;32;20216;-61
2022/12/18 07:01:21;;;;;;;7.18;3.72;;;-2.60;99.90;;;;;;7378868;32;20529;-60
2022/12/18 07:05:23;;;;;;;7.45;3.95;;;-2.50;99.90;;;;;;7370410;32;20137;-60
2022/12/18 07:09:25;;;;;;;6.53;3.95;;;-2.50;99.90;;;;;;7370768;32;20551;-60
2022/12/18 07:13:27;;;;;;;7.45;3.85;;;-2.60;99.90;;;;;;7370378;32;20129;-60
2022/12/18 07:17:29;;;;;;;6.47;3.78;;;-2.70;99.90;;;;;;7376614;32;20503;-61
2022/12/18 07:21:31;;;;;;;8.35;3.92;;;-2.60;99.90;;;;;;7378006;32;20482;-61
2022/12/18 07:25:36;;;;;;;7.80;3.95;;;-2.60;99.90;;;;;;7380050;32;20161;-60
2022/12/18 07:29:38;;;;;;;6.90;3.30;;;-2.60;99.90;;;;;;7379441;32;20780;-62
2022/12/18 07:33:40;;;;;;;8.65;3.92;;;-2.60;99.90;;;;;;7369926;32;20186;-62
2022/12/18 07:37:42;;;;;;;8.90;4.20;;;-2.70;99.90;;;;;;7374526;32;20122;-60
2022/12/18 07:42:30;;;;;;;7.55;3.92;;;-2.60;99.90;;;;;;7373358;32;20107;-60
2022/12/18 07:46:07;;;;;;;9.35;4.35;;;-2.50;99.90;;;;;;7371450;32;20106;-61
2022/12/18 07:50:09;;;;;;;7.28;4.65;;;-2.50;99.90;;;;;;7370751;32;20201;-62
2022/12/18 07:54:11;;;;;;;8.75;4.12;;;-2.50;99.90;;;;;;7373735;32;20118;-60
2022/12/18 07:58:12;;;;;;;9.77;4.87;;;-2.40;99.90;;;;;;7367194;32;21225;-60
2022/12/18 08:02:14;;;;;;;9.05;4.35;;;-2.50;99.90;;;;;;7369236;32;20253;-60
2022/12/18 08:06:16;;;;;;;8.00;4.72;;;-2.50;99.90;;;;;;7378159;32;20896;-62
2022/12/18 08:10:18;;;;;;;10.32;5.12;;;-2.50;99.90;;;;;;7370047;32;20681;-61
2022/12/18 08:14:20;;;;;;;9.95;5.22;;;-2.50;99.90;;;;;;7375560;32;20111;-61
2022/12/18 08:18:21;;;;;;;8.57;4.85;;;-2.60;99.90;;;;;;7366431;32;20111;-60
2022/12/18 08:22:23;;;;;;;8.85;4.90;;;-2.60;99.90;;;;;;7365503;32;20753;-61
2022/12/18 08:26:27;;;;;;;9.35;4.93;;;-2.60;99.90;;;;;;7380015;32;20232;-61
2022/12/18 08:30:28;;;;;;;10.02;4.78;;;-2.50;99.90;;;;;;7371603;32;20125;-62
2022/12/18 08:34:30;;;;;;;8.35;4.68;;;-2.40;99.90;;;;;;7377547;32;20201;-58
2022/12/18 08:38:35;;;;;;;9.38;4.72;;;-2.30;99.90;;;;;;7372983;32;20118;-62
2022/12/18 08:46:57;;;;;;;9.25;4.80;;;-2.00;99.90;;;;;;7377934;32;20930;-61
2022/12/18 08:51:00;;;;;;;8.75;4.40;;;-1.80;99.90;;;;;;7372815;32;20249;-61
2022/12/18 08:55:01;;;;;;;8.20;4.55;;;-1.70;99.90;;;;;;7362794;32;20255;-61
2022/12/18 08:59:04;;;;;;;8.45;4.20;;;-1.40;99.90;;;;;;7373711;32;20754;-61
2022/12/18 09:03:11;;;;;;;7.80;4.47;;;-1.30;99.90;;;;;;7375684;32;20511;-63
2022/12/18 09:07:13;;;;;;;8.20;4.72;;;-1.20;99.90;;;;;;7377431;32;20131;-61
2022/12/18 09:11:20;;;;;;;8.18;5.05;;;-1.10;99.90;;;;;;7374030;32;20196;-61
2022/12/18 09:15:22;;;;;;;9.88;4.68;;;-1.00;99.90;;;;;;7374722;32;20129;-61
2022/12/18 09:19:24;;;;;;;9.45;4.25;;;-1.00;99.90;;;;;;7367436;32;20137;-62
2022/12/18 09:23:26;;;;;;;7.43;4.43;;;-0.80;99.90;;;;;;7377140;32;20135;-63
2022/12/18 09:27:27;;;;;;;9.45;4.53;;;-0.70;99.90;;;;;;7375002;32;20115;-62
2022/12/18 09:31:29;;;;;;;7.05;4.18;;;-0.80;99.90;;;;;;7372806;32;20107;-62
2022/12/18 09:35:30;;;;;;;7.28;4.20;;;-0.60;99.90;;;;;;7372256;32;20205;-62
2022/12/18 09:39:35;;;;;;;9.48;4.62;;;-0.50;99.90;;;;;;7375096;32;20203;-62
2022/12/18 09:43:50;;;;;;;8.63;4.50;;;-0.30;99.90;;;;;;7369556;32;20629;-63
2022/12/18 09:47:54;;;;;;;9.32;4.80;;;-0.20;99.90;;;;;;7372505;32;20262;-62
2022/12/18 09:52:05;;;;;;;8.27;4.22;;;0.00;99.90;;;;;;7374442;32;20123;-62
2022/12/18 09:56:15;;;;;;;6.57;3.92;;;0.10;99.90;;;;;;7372144;32;20206;-63
2022/12/18 10:00:21;;;;;;;8.85;4.45;;;0.20;99.90;;;;;;7364996;32;20283;-62
2022/12/18 10:04:24;;;;;;;8.37;4.40;;;0.30;99.90;;;;;;7376980;32;20134;-62
2022/12/18 10:08:53;;;;;;;7.78;4.05;;;0.40;99.90;;;;;;7375513;32;20198;-62
2022/12/18 10:13:11;;;;;;;8.73;4.62;;;0.50;99.90;;;;;;7383051;32;20111;-61
2022/12/18 10:17:36;;;;;;;8.40;4.68;;;0.60;99.90;;;;;;7377788;32;20821;-61
2022/12/18 10:22:00;;;;;;;7.78;4.37;;;0.70;99.90;;;;;;7375946;32;20111;-63
2022/12/18 10:26:05;;;;;;;7.55;4.45;;;0.80;99.90;;;;;;7372914;32;20161;-61
2022/12/18 10:30:20;;;;;;;8.90;4.55;;;0.90;99.90;;;;;;7365685;32;20193;-63
2022/12/18 10:34:23;;;;;;;9.82;4.95;;;1.00;99.90;;;;;;7364707;32;20485;-62
2022/12/18 10:38:30;;;;;;;8.45;4.93;;;1.10;99.90;;;;;;7374786;32;20129;-61
2022/12/18 10:42:31;;;;;;;;;;;1.20;99.90;;;;;;7375929;32;20137;-62
2022/12/18 10:46:33;;;;;;;8.23;4.90;;;1.30;99.90;;;;;;7369427;32;20132;-63
2022/12/18 10:50:37;;;;;;;9.48;4.82;;;1.30;99.90;;;;;;7367048;32;20533;-61
2022/12/18 10:55:02;;;;;;;10.43;5.00;;;1.30;99.90;;;;;;7375672;32;20205;-62
2022/12/18 10:59:10;;;;;;;9.55;5.00;;;1.50;99.90;;;;;;7371881;32;20102;-62
2022/12/18 11:03:37;;;;;;;9.05;4.82;;;1.50;99.90;;;;;;7368754;32;20519;-61
2022/12/18 11:07:50;;;;;;;9.50;4.55;;;1.60;99.90;;;;;;7356440;32;20147;-59
2022/12/18 11:11:55;;;;;;;9.10;5.03;;;1.60;99.90;;;;;;7368196;32;20094;-62
2022/12/18 11:15:57;;;;;;;8.93;4.93;;;1.70;99.90;;;;;;7371580;32;20099;-62
2022/12/18 11:20:19;;;;;;;9.32;5.18;;;1.70;99.90;;;;;;7374420;32;20115;-61
2022/12/18 11:24:31;;;;;;;11.07;4.80;;;1.70;99.90;;;;;;7367962;32;20194;-62
2022/12/18 11:28:46;;;;;;;9.05;4.87;;;1.80;99.90;;;;;;7370557;32;20152;-63
2022/12/18 11:33:10;;;;;;;9.35;4.97;;;1.90;99.90;;;;;;7373684;32;20125;-61
2022/12/18 11:37:13;;;;;;;8.20;4.87;;;1.90;99.90;;;;;;7368464;32;20171;-62
2022/12/18 11:46:14;;;;;;;9.93;5.12;;;1.90;99.90;;;;;;7369205;32;20126;-62
2022/12/18 11:50:51;;;;;;;8.32;4.78;;;2.00;99.90;;;;;;7366449;32;20096;-62
2022/12/18 11:54:59;;;;;;;8.90;4.87;;;1.90;99.90;;;;;;7372100;32;20217;-62
2022/12/18 11:59:16;;;;;;;10.15;5.93;;;2.00;99.90;;;;;;7368928;32;20990;-61
2022/12/18 12:03:43;;;;;;;13.50;5.70;;;2.00;99.90;;;;;;7370813;32;20663;-64
2022/12/18 12:08:03;;;;;;;;;;;1.80;99.90;;;;;;7375652;32;20254;-61
2022/12/18 12:12:19;;;;;;;10.80;5.47;;;1.90;99.90;;;;;;7374997;32;20003;-64
2022/12/18 12:16:37;;;;;;;10.23;5.55;;;1.90;99.90;;;;;;7377481;32;20106;-61
2022/12/18 12:21:21;;;;;;;13.30;7.10;;;1.80;99.90;;;;;;7374359;32;20202;-61
2022/12/18 12:25:54;;;;;;;14.07;6.32;;;1.80;99.90;;;;;;7377266;32;20122;-63
2022/12/18 12:30:09;;;;;;;10.50;6.03;;;1.70;99.90;;;;;;7369684;32;20137;-64
2022/12/18 12:34:26;;;;;;;12.40;6.35;;;1.70;99.90;;;;;;7375235;32;20201;-61
2022/12/18 12:38:35;;;;;;;13.62;6.12;;;1.50;99.90;;;;;;7375983;32;20137;-63
2022/12/18 12:47:20;;;;;;;11.88;6.95;;;1.50;99.90;;;;;;7374935;32;20264;-63
2022/12/18 12:51:23;;;;;;;12.98;7.03;;;1.40;99.90;;;;;;7367387;32;20186;-61
2022/12/18 12:55:28;;;;;;;14.18;6.45;;;1.40;99.90;;;;;;7374652;32;20111;-61
2022/12/18 12:59:47;;;;;;;15.00;7.20;;;1.40;99.90;;;;;;7371598;32;20128;-60
2022/12/18 13:04:00;;;;;;;15.25;7.12;;;1.30;99.90;;;;;;7373174;32;20247;-61
2022/12/18 13:08:25;;;;;;;14.43;7.43;;;1.30;99.90;;;;;;7376248;32;20577;-62
2022/12/18 13:16:48;;;;;;;14.05;7.50;;;1.10;99.90;;;;;;7371431;32;20115;-61
2022/12/18 13:21:18;;;;;;;13.85;7.47;;;1.10;99.90;;;;;;7375692;32;20119;-60
2022/12/18 13:25:32;;;;;;;14.75;7.87;;;1.00;99.90;;;;;;7372456;32;20220;-61
2022/12/18 13:29:45;;;;;;;13.57;8.02;;;1.20;99.90;;;;;;7363613;32;20131;-61
2022/12/18 13:33:48;;;;;;;16.15;8.55;;;1.10;99.90;;;;;;7370787;32;20130;-63
2022/12/18 13:38:37;;;;;;;16.00;8.35;;;1.10;99.90;;;;;;7374434;32;20216;-62
2022/12/18 13:47:04;;;;;;;15.15;8.15;;;1.10;99.90;;;;;;7369188;32;20515;-62
2022/12/18 13:51:10;;;;;;;16.37;8.20;;;1.20;99.90;;;;;;7373377;32;20110;-62
2022/12/18 13:55:18;;;;;;;16.67;9.00;;;1.10;99.90;;;;;;7375640;32;20124;-62
2022/12/18 13:59:23;;;;;;;15.93;8.93;;;1.10;99.90;;;;;;7372007;32;20106;-61
2022/12/18 14:03:28;;;;;;;15.60;8.57;;;1.00;99.90;;;;;;7369188;32;20732;-60
2022/12/18 14:07:32;;;;;;;16.55;8.88;;;1.00;99.90;;;;;;7377562;32;20108;-62
2022/12/18 14:11:50;;;;;;;17.08;9.00;;;1.00;99.90;;;;;;7373830;32;20126;-60
2022/12/18 14:15:53;;;;;;;20.33;9.32;;;1.00;99.90;;;;;;7368216;32;20213;-61
2022/12/18 14:19:55;;;;;;;17.80;9.05;;;1.00;99.90;;;;;;7365778;32;20543;-61
2022/12/18 14:24:17;;;;;;;16.55;9.10;;;1.00;99.90;;;;;;7371914;32;20157;-61
2022/12/18 14:28:21;;;;;;;17.17;9.32;;;1.00;99.90;;;;;;7373496;32;20199;-62
2022/12/18 14:32:23;;;;;;;16.33;9.13;;;0.90;99.90;;;;;;7372686;32;20602;-61
2022/12/18 14:36:27;;;;;;;17.25;9.27;;;0.80;99.90;;;;;;7375803;32;20182;-61
2022/12/18 14:40:29;;;;;;;17.92;9.73;;;0.90;99.90;;;;;;7375517;32;20099;-62
2022/12/18 14:44:30;;;;;;;16.85;10.02;;;0.80;99.90;;;;;;7370190;32;20491;-61
2022/12/18 14:48:52;;;;;;;16.23;9.15;;;0.70;99.90;;;;;;7369845;32;20171;-62
2022/12/18 14:52:53;;;;;;;19.33;10.75;;;0.70;99.90;;;;;;7377947;32;20726;-61
2022/12/18 14:57:05;;;;;;;20.95;11.88;;;0.70;99.90;;;;;;7374305;32;20107;-62
2022/12/18 15:01:07;;;;;;;22.20;11.43;;;0.60;99.90;;;;;;7368240;32;20604;-60
2022/12/18 15:05:17;;;;;;;19.37;9.90;;;0.60;99.90;;;;;;7364440;32;20225;-62
2022/12/18 15:09:25;;;;;;;21.90;10.30;;;0.60;99.90;;;;;;7370616;32;20103;-61
2022/12/18 15:13:26;;;;;;;18.25;10.23;;;0.50;99.90;;;;;;7365780;32;20099;-62
2022/12/18 15:17:28;;;;;;;20.75;10.25;;;0.50;99.90;;;;;;7366998;32;20091;-62
2022/12/18 15:21:31;;;;;;;19.98;10.50;;;0.50;99.90;;;;;;7376566;32;20786;-62
2022/12/18 15:25:39;;;;;;;19.52;10.70;;;0.60;99.90;;;;;;7374196;32;20158;-61
2022/12/18 15:29:41;;;;;;;20.45;10.88;;;0.60;99.90;;;;;;7367464;32;20224;-62
2022/12/18 15:33:45;;;;;;;22.35;11.98;;;0.50;99.90;;;;;;7375310;32;20107;-62
2022/12/18 15:37:48;;;;;;;25.92;10.55;;;0.50;99.90;;;;;;7371487;32;20111;-60
2022/12/18 15:46:16;;;;;;;19.00;9.90;;;0.60;99.90;;;;;;7368974;32;20098;-60
2022/12/18 15:50:17;;;;;;;19.27;10.43;;;0.50;99.90;;;;;;7377268;32;20570;-61
2022/12/18 15:57:22;;;;;;;21.27;10.50;;;0.50;99.90;;;;;;7376943;32;20450;-60
2022/12/18 15:58:42;;;;;;;21.83;11.57;;;0.40;99.90;;;;;;7370708;32;20194;-61
2022/12/18 16:02:44;;;;;;;19.17;10.93;;;0.40;99.90;;;;;;7372103;32;20099;-61
2022/12/18 16:06:46;;;;;;;19.73;10.70;;;0.30;99.90;;;;;;7374491;32;20171;-60
2022/12/18 16:11:43;;;;;;;21.42;11.50;;;0.40;99.90;;;;;;7372357;32;20163;-60
2022/12/18 16:15:45;;;;;;;21.70;11.12;;;0.30;99.90;;;;;;7367085;32;20651;-60
2022/12/18 16:19:47;;;;;;;20.95;12.25;;;0.30;99.90;;;;;;7371725;32;20158;-60
2022/12/18 16:23:48;;;;;;;26.95;12.40;;;0.30;99.90;;;;;;7372106;32;20111;-61
2022/12/18 16:27:51;;;;;;;21.35;12.32;;;0.20;99.90;;;;;;7371523;32;20102;-60
2022/12/18 16:31:54;;;;;;;26.20;13.82;;;0.20;99.90;;;;;;7367038;32;20124;-58
2022/12/18 16:35:56;;;;;;;22.50;12.70;;;0.20;99.90;;;;;;7368014;32;20111;-60
2022/12/18 16:39:58;;;;;;;26.73;12.95;;;0.20;99.90;;;;;;7367606;32;20108;-59
2022/12/18 16:43:59;;;;;;;22.90;12.95;;;0.20;99.90;;;;;;7367740;32;20323;-59
2022/12/18 16:48:01;;;;;;;23.85;13.15;;;0.00;99.90;;;;;;7370934;32;20227;-59
2022/12/18 16:52:04;;;;;;;19.95;11.68;;;0.10;99.90;;;;;;7374059;32;20149;-59
2022/12/18 16:56:06;;;;;;;21.67;13.62;;;0.10;99.90;;;;;;7369579;32;20447;-59
2022/12/18 17:00:08;;;;;;;23.67;13.50;;;0.10;99.90;;;;;;7369002;32;20126;-60
2022/12/18 17:04:10;;;;;;;24.95;13.73;;;0.00;99.90;;;;;;7372639;32;20198;-59
2022/12/18 17:08:11;;;;;;;24.90;13.73;;;0.00;99.90;;;;;;7370786;32;20224;-59
2022/12/18 17:12:13;;;;;;;25.62;13.98;;;0.00;99.90;;;;;;7371260;32;20171;-59
2022/12/18 17:16:16;;;;;;;28.35;14.38;;;0.00;99.90;;;;;;7370085;32;20123;-59
2022/12/18 17:20:18;;;;;;;26.27;14.52;;;0.00;99.90;;;;;;7374539;32;20523;-61
2022/12/18 17:24:20;;;;;;;24.87;14.13;;;0.00;99.90;;;;;;7374362;32;20203;-58
2022/12/18 17:28:24;;;;;;;27.45;14.43;;;-0.10;99.90;;;;;;7370619;32;20876;-60
2022/12/18 17:32:26;;;;;;;26.92;14.00;;;-0.10;99.90;;;;;;7373248;32;20110;-59
2022/12/18 17:36:31;;;;;;;28.50;14.90;;;-0.10;99.90;;;;;;7371750;32;20574;-60
2022/12/18 17:40:32;;;;;;;30.02;15.15;;;-0.20;99.90;;;;;;7373348;32;20198;-58
2022/12/18 17:44:34;;;;;;;28.95;14.87;;;-0.20;99.90;;;;;;7369247;32;20822;-59
2022/12/18 17:48:36;;;;;;;29.48;15.93;;;-0.20;99.90;;;;;;7372609;32;20095;-60
2022/12/18 17:52:38;;;;;;;33.70;15.93;;;-0.20;99.90;;;;;;7372013;32;20264;-59
2022/12/18 17:56:40;;;;;;;27.00;15.65;;;-0.30;99.90;;;;;;7362864;32;20130;-58
2022/12/18 18:00:42;;;;;;;29.27;15.63;;;-0.30;99.90;;;;;;7372015;32;20216;-59
2022/12/18 18:04:44;;;;;;;30.12;15.10;;;-0.20;99.90;;;;;;7371136;32;20102;-60
2022/12/18 18:08:45;;;;;;;31.37;16.95;;;-0.20;99.90;;;;;;7375365;32;20145;-60
2022/12/18 18:17:07;;;;;;;28.50;16.02;;;-0.20;99.90;;;;;;7369932;32;20935;-59
2022/12/18 18:21:09;;;;;;;32.22;15.95;;;-0.30;99.90;;;;;;7374168;32;20107;-59
2022/12/18 18:25:11;;;;;;;33.58;17.25;;;-0.20;99.90;;;;;;7368838;32;20125;-61
2022/12/18 18:29:16;;;;;;;29.77;15.68;;;-0.30;99.90;;;;;;7375985;32;20122;-60
2022/12/18 18:33:18;;;;;;;32.95;17.10;;;-0.40;99.90;;;;;;7376228;32;20117;-61
2022/12/18 18:37:20;;;;;;;33.72;16.67;;;-0.30;99.90;;;;;;7373523;32;20099;-60
2022/12/18 18:41:23;;;;;;;33.90;16.83;;;-0.30;99.90;;;;;;7376262;32;20128;-59
2022/12/18 18:45:25;;;;;;;33.63;16.02;;;-0.30;99.90;;;;;;7373523;32;20121;-60
2022/12/18 18:49:27;;;;;;;29.17;16.25;;;-0.30;99.90;;;;;;7374970;32;20095;-60
2022/12/18 18:53:29;;;;;;;36.90;18.15;;;-0.40;99.90;;;;;;7368288;32;20477;-61
2022/12/18 18:57:32;;;;;;;31.65;17.17;;;-0.30;99.90;;;;;;7371772;32;20107;-61
2022/12/18 19:01:34;;;;;;;33.35;17.20;;;-0.30;99.90;;;;;;7372076;32;20126;-60
2022/12/18 19:05:36;;;;;;;32.60;16.55;;;-0.30;99.90;;;;;;7372761;32;20258;-60
2022/12/18 19:09:37;;;;;;;34.80;17.33;;;-0.30;99.90;;;;;;7375094;32;20126;-61
2022/12/18 19:13:39;;;;;;;35.22;18.08;;;-0.30;99.90;;;;;;7372896;32;20102;-60
2022/12/18 19:17:41;;;;;;;36.90;18.35;;;-0.30;99.90;;;;;;7368316;32;20133;-60
2022/12/18 19:21:48;;;;;;;33.93;17.17;;;-0.30;99.90;;;;;;7372231;32;20492;-61
2022/12/18 19:25:50;;;;;;;35.45;18.40;;;-0.30;99.90;;;;;;7367704;32;20201;-60
2022/12/18 19:30:12;;;;;;;35.95;17.60;;;-0.30;99.90;;;;;;7371108;32;20212;-61
2022/12/18 19:34:14;;;;;;;36.35;19.08;;;-0.30;99.90;;;;;;7366791;32;20138;-61
2022/12/18 19:38:16;;;;;;;33.75;16.70;;;-0.40;99.90;;;;;;7366256;32;20608;-60
2022/12/18 19:42:17;;;;;;;37.70;17.30;;;-0.30;99.90;;;;;;7371959;32;20095;-59
2022/12/18 19:46:27;;;;;;;37.42;18.50;;;-0.20;99.90;;;;;;7371567;32;20144;-59
2022/12/18 19:50:28;;;;;;;35.10;17.55;;;-0.20;99.90;;;;;;7376061;32;20114;-60
2022/12/18 19:54:33;;;;;;;38.08;17.37;;;-0.20;99.90;;;;;;7372822;32;20217;-59
2022/12/18 19:58:35;;;;;;;34.58;15.85;;;-0.20;99.90;;;;;;7370545;32;20103;-58
2022/12/18 20:02:37;;;;;;;37.08;17.62;;;-0.10;99.90;;;;;;7370446;32;20206;-58
2022/12/18 20:06:51;;;;;;;34.03;17.33;;;-0.10;99.90;;;;;;7375326;32;20141;-60
2022/12/18 20:10:53;;;;;;;32.45;17.02;;;0.00;99.90;;;;;;7373172;32;20193;-59
2022/12/18 20:14:55;;;;;;;35.53;17.45;;;-0.10;99.90;;;;;;7371938;32;20122;-62
2022/12/18 20:18:57;;;;;;;36.88;17.37;;;0.10;99.90;;;;;;7374453;32;20099;-59
2022/12/18 20:22:59;;;;;;;32.67;17.10;;;0.30;99.90;;;;;;7377995;32;20122;-61
2022/12/18 20:27:01;;;;;;;35.65;18.08;;;0.20;99.90;;;;;;7368450;32;20529;-61
2022/12/18 20:31:07;;;;;;;37.10;16.83;;;0.20;99.90;;;;;;7371981;32;20711;-60
2022/12/18 20:35:11;;;;;;;35.65;17.12;;;0.20;99.90;;;;;;7378059;32;20140;-62
2022/12/18 20:39:14;;;;;;;36.28;17.83;;;0.10;99.90;;;;;;7380790;32;20534;-60
2022/12/18 20:43:16;;;;;;;37.65;18.48;;;0.10;99.90;;;;;;7376813;32;20181;-60
2022/12/18 20:47:18;;;;;;;32.70;17.30;;;0.10;99.90;;;;;;7378714;32;20201;-61
2022/12/18 20:51:20;;;;;;;35.63;17.65;;;0.20;99.90;;;;;;7378873;32;20157;-60
2022/12/18 20:55:22;;;;;;;34.28;16.25;;;0.10;99.90;;;;;;7367936;32;20123;-60
2022/12/18 20:59:24;;;;;;;36.30;18.05;;;0.20;99.90;;;;;;7367740;32;20541;-61
2022/12/18 21:03:26;;;;;;;34.30;17.27;;;0.10;99.90;;;;;;7376699;32;20832;-61
2022/12/18 21:07:28;;;;;;;35.03;17.58;;;0.10;99.90;;;;;;7378449;32;20126;-61
2022/12/18 21:15:53;;;;;;;36.85;18.05;;;0.10;99.90;;;;;;7366479;32;20095;-60
2022/12/18 21:19:55;;;;;;;33.15;17.55;;;0.20;99.90;;;;;;7372619;32;20125;-60
2022/12/18 21:23:57;;;;;;;34.60;18.05;;;0.20;99.90;;;;;;7363829;32;20099;-60
2022/12/18 21:27:59;;;;;;;35.53;18.20;;;0.20;99.90;;;;;;7381629;32;20203;-62
2022/12/18 21:32:01;;;;;;;37.17;18.23;;;0.20;99.90;;;;;;7377005;32;20127;-60
2022/12/18 21:36:05;;;;;;;36.17;16.48;;;0.20;99.90;;;;;;7377418;32;20205;-60
2022/12/18 21:40:07;;;;;;;36.95;16.85;;;0.20;99.90;;;;;;7376396;32;20183;-60
2022/12/18 21:44:15;;;;;;;35.63;18.52;;;0.20;99.90;;;;;;7379111;32;20098;-61
2022/12/18 21:48:16;;;;;;;38.42;18.50;;;0.20;99.90;;;;;;7379626;32;20140;-60
2022/12/18 21:52:19;;;;;;;39.38;17.58;;;0.20;99.90;;;;;;7381738;32;20099;-61